^^
Saratoga-Weather Station Historical Data
Daily Summary for January 26, 2021 Units:  English    Metric   Both
Daily Weekly Monthly Yearly Custom
  High: Low: Average:
Temperature: 75.6 °F 52.9 °F 60.6 °F
Dew Point: 59 °F 50 °F 53.4 °F
Humidity: 94% 50% 79%
Wind Speed: 5mph 0mph 0.7mph
Wind Gust: 8mph - -
Wind- - East
Pressure: 30.1 in 30 in -
Precipitation: 0 in    
Historical Graphs
 
 
Tabular Data for January 26, 2021
Time Temperature Dew Point Pressure Wind Wind Speed Wind Gust Humidity Rainfall Rate (Hourly) solar
00:02 57.6 °F 51.4 °F 30.1 in Calm     80% 0 in 0 W/m2
00:07 57.6 °F 51.4 °F 30.1 in Calm     80% 0 in 0 W/m2
00:12 57.4 °F 51.3 °F 30.1 in Calm     80% 0 in 0 W/m2
00:17 57.4 °F 51.3 °F 30.1 in Calm     80% 0 in 0 W/m2
00:22 57.4 °F 51.3 °F 30.1 in Calm     80% 0 in 0 W/m2
00:27 57 °F 51.3 °F 30.1 in Calm     81% 0 in 0 W/m2
00:32 57 °F 51.3 °F 30.1 in Calm     81% 0 in 0 W/m2
00:37 56.8 °F 51.4 °F 30.1 in Calm     82% 0 in 0 W/m2
00:42 56.8 °F 51.4 °F 30.1 in Calm     82% 0 in 0 W/m2
00:47 56.7 °F 51.3 °F 30.1 in Calm     82% 0 in 0 W/m2
00:52 56.7 °F 51.3 °F 30.1 in Calm     82% 0 in 0 W/m2
00:57 56.5 °F 51.4 °F 30.1 in Calm     83% 0 in 0 W/m2
01:02 56.5 °F 51.4 °F 30.1 in Calm     83% 0 in 0 W/m2
01:07 56.3 °F 51.3 °F 30.1 in Calm     83% 0 in 0 W/m2
01:12 56.3 °F 51.3 °F 30.1 in Calm     83% 0 in 0 W/m2
01:17 56.1 °F 51.1 °F 30.1 in Calm     83% 0 in 0 W/m2
01:22 56.1 °F 51.4 °F 30.1 in Calm     84% 0 in 0 W/m2
01:27 56.1 °F 51.4 °F 30.1 in Calm     84% 0 in 0 W/m2
01:32 56.1 °F 51.4 °F 30.1 in Calm     84% 0 in 0 W/m2
01:37 56.1 °F 51.1 °F 30.1 in Calm     83% 0 in 0 W/m2
01:42 56.1 °F 51.4 °F 30.1 in Calm     84% 0 in 0 W/m2
01:47 56.1 °F 51.4 °F 30.1 in Calm     84% 0 in 0 W/m2
01:52 56.1 °F 51.4 °F 30.1 in Calm     84% 0 in 0 W/m2
01:57 56.1 °F 51.4 °F 30.1 in Calm     84% 0 in 0 W/m2
02:02 56.1 °F 51.4 °F 30.1 in Calm     84% 0 in 0 W/m2
02:07 56.1 °F 51.4 °F 30.1 in Calm     84% 0 in 0 W/m2
02:12 56.1 °F 51.4 °F 30.1 in Calm     84% 0 in 0 W/m2
02:17 55.9 °F 51.3 °F 30.1 in Calm     84% 0 in 0 W/m2
02:22 55.9 °F 51.3 °F 30.1 in Calm     84% 0 in 0 W/m2
02:27 55.8 °F 51.3 °F 30 in Calm     85% 0 in 0 W/m2
02:32 55.6 °F 51.1 °F 30.1 in Calm     85% 0 in 0 W/m2
02:37 55.2 °F 50.7 °F 30.1 in Calm     85% 0 in 0 W/m2
02:42 55 °F 50.9 °F 30 in Calm     86% 0 in 0 W/m2
02:47 54.9 °F 50.7 °F 30 in Calm     86% 0 in 0 W/m2
02:52 54.9 °F 50.7 °F 30 in Calm     86% 0 in 0 W/m2
02:57 54.7 °F 50.5 °F 30 in Calm     86% 0 in 0 W/m2
03:02 54.5 °F 50.7 °F 30 in Calm     87% 0 in 0 W/m2
03:07 54.3 °F 50.5 °F 30 in Calm     87% 0 in 0 W/m2
03:12 54.3 °F 50.5 °F 30 in Calm     87% 0 in 0 W/m2
03:17 54.1 °F 50.7 °F 30.1 in Calm     88% 0 in 0 W/m2
03:22 54.1 °F 50.4 °F 30.1 in Calm     87% 0 in 0 W/m2
03:27 54.1 °F 50.7 °F 30.1 in Calm     88% 0 in 0 W/m2
03:32 54 °F 50.5 °F 30 in Calm     88% 0 in 0 W/m2
03:37 54 °F 50.5 °F 30.1 in Calm     88% 0 in 0 W/m2
03:42 53.8 °F 50.4 °F 30.1 in Calm     88% 0 in 0 W/m2
03:47 53.8 °F 50.5 °F 30.1 in Calm     89% 0 in 0 W/m2
03:52 53.6 °F 50.4 °F 30 in Calm     89% 0 in 0 W/m2
03:57 53.4 °F 50.2 °F 30.1 in Calm     89% 0 in 0 W/m2
04:02 53.4 °F 50.2 °F 30.1 in Calm     89% 0 in 0 W/m2
04:07 53.2 °F 50 °F 30.1 in Calm     89% 0 in 0 W/m2
04:12 53.2 °F 50.4 °F 30 in Calm     90% 0 in 0 W/m2
04:17 53.4 °F 50.5 °F 30 in Calm     90% 0 in 0 W/m2
04:22 53.6 °F 50.7 °F 30.1 in Calm     90% 0 in 0 W/m2
04:27 53.6 °F 50.7 °F 30 in Calm     90% 0 in 0 W/m2
04:32 53.8 °F 50.9 °F 30.1 in Calm     90% 0 in 0 W/m2
04:37 53.8 °F 51.3 °F 30.1 in Calm     91% 0 in 0 W/m2
04:42 54 °F 51.4 °F 30 in Calm     91% 0 in 0 W/m2
04:47 53.8 °F 50.9 °F 30 in Calm     90% 0 in 0 W/m2
04:52 53.8 °F 50.9 °F 30 in Calm     90% 0 in 0 W/m2
04:57 53.8 °F 51.3 °F 30 in Calm     91% 0 in 0 W/m2
05:03 53.8 °F 51.3 °F 30 in Calm     91% 0 in 0 W/m2
05:08 53.6 °F 51.1 °F 30 in Calm     91% 0 in 0 W/m2
05:13 53.4 °F 50.9 °F 30 in Calm     91% 0 in 0 W/m2
05:18 53.4 °F 50.9 °F 30 in Calm     91% 0 in 0 W/m2
05:23 53.2 °F 50.7 °F 30 in Calm     91% 0 in 0 W/m2
05:28 53.2 °F 50.7 °F 30 in Calm     91% 0 in 0 W/m2
05:33 53.1 °F 50.5 °F 30 in Calm     91% 0 in 0 W/m2
05:38 53.1 °F 50.7 °F 30.1 in Calm     92% 0 in 5 W/m2
05:43 52.9 °F 50.5 °F 30 in Calm     92% 0 in 7 W/m2
05:48 52.9 °F 50.5 °F 30 in Calm     92% 0 in 9 W/m2
05:53 52.9 °F 50.5 °F 30 in Calm     92% 0 in 14 W/m2
05:58 52.9 °F 50.5 °F 30 in Calm     92% 0 in 16 W/m2
06:03 52.9 °F 50.5 °F 30.1 in Calm     92% 0 in 18 W/m2
06:08 52.9 °F 50.9 °F 30.1 in Calm     93% 0 in 21 W/m2
06:13 52.9 °F 50.9 °F 30.1 in Calm     93% 0 in 23 W/m2
06:18 52.9 °F 50.9 °F 30.1 in Calm     93% 0 in 30 W/m2
06:23 52.9 °F 50.9 °F 30.1 in Calm     93% 0 in 32 W/m2
06:28 53.1 °F 51.1 °F 30.1 in Calm     93% 0 in 33 W/m2
06:33 53.2 °F 51.6 °F 30.1 in Calm     94% 0 in 35 W/m2
06:38 53.2 °F 51.6 °F 30.1 in Calm     94% 0 in 33 W/m2
06:43 53.4 °F 51.8 °F 30.1 in Calm     94% 0 in 30 W/m2
06:48 53.6 °F 52 °F 30.1 in Calm     94% 0 in 33 W/m2
06:53 53.8 °F 51.8 °F 30.1 in Calm     93% 0 in 37 W/m2
06:58 54 °F 52 °F 30.1 in Calm     93% 0 in 35 W/m2
07:03 54 °F 52 °F 30.1 in Calm     93% 0 in 39 W/m2
07:08 54.1 °F 52.2 °F 30.1 in Calm     93% 0 in 44 W/m2
07:13 54.3 °F 52.3 °F 30.1 in Calm     93% 0 in 49 W/m2
07:18 54.9 °F 52.5 °F 30.1 in Calm     92% 0 in 58 W/m2
07:23 55 °F 52.7 °F 30.1 in Calm     92% 0 in 65 W/m2
07:28 55.6 °F 53.1 °F 30.1 in North 2 mph 2 mph 91% 0 in 76 W/m2
07:33 55.9 °F 53.4 °F 30.1 in Calm   1 mph 91% 0 in 86 W/m2
07:38 56.3 °F 53.4 °F 30.1 in NE 2 mph 2 mph 90% 0 in 132 W/m2
07:43 56.7 °F 53.4 °F 30.1 in NE 0.9 mph 3 mph 89% 0 in 255 W/m2
07:48 57 °F 53.2 °F 30.1 in NE 0.9 mph 3 mph 87% 0 in 260 W/m2
07:53 57.6 °F 53.8 °F 30.1 in NE 0.9 mph 1 mph 87% 0 in 216 W/m2
07:58 58.3 °F 54.1 °F 30.1 in Calm     86% 0 in 193 W/m2
08:03 58.8 °F 54.7 °F 30.1 in Calm   2 mph 86% 0 in 323 W/m2
08:08 59.5 °F 54.7 °F 30.1 in ENE 0.9 mph 2 mph 84% 0 in 292 W/m2
08:13 60.1 °F 54.9 °F 30.1 in Calm   2 mph 83% 0 in 253 W/m2
08:18 61 °F 55.4 °F 30.1 in East 0.9 mph 2 mph 82% 0 in 188 W/m2
08:23 61.3 °F 55 °F 30.1 in NNE 0.9 mph 2 mph 80% 0 in 171 W/m2
08:28 61.9 °F 55.6 °F 30.1 in NNW 0.9 mph 2 mph 80% 0 in 160 W/m2
08:33 62.1 °F 55.4 °F 30.1 in Calm   2 mph 79% 0 in 183 W/m2
08:38 62.2 °F 55.6 °F 30.1 in East 0.9 mph 2 mph 79% 0 in 178 W/m2
08:43 62.2 °F 55.6 °F 30.1 in ESE 0.9 mph 3 mph 79% 0 in 199 W/m2
08:48 62.4 °F 55.8 °F 30.1 in East 0.9 mph 5 mph 79% 0 in 200 W/m2
08:53 62.8 °F 56.5 °F 30.1 in North 0.9 mph 5 mph 80% 0 in 209 W/m2
08:58 63.1 °F 56.1 °F 30.1 in NE 2 mph 3 mph 78% 0 in 192 W/m2
09:03 63.3 °F 56.7 °F 30.1 in Calm   5 mph 79% 0 in 171 W/m2
09:08 63.7 °F 56.7 °F 30.1 in NE 2 mph 4 mph 78% 0 in 171 W/m2
09:13 63.5 °F 56.1 °F 30.1 in ENE 0.9 mph 3 mph 77% 0 in 163 W/m2
09:18 63.3 °F 55.9 °F 30.1 in NNE 0.9 mph 3 mph 77% 0 in 315 W/m2
09:23 63.7 °F 56.3 °F 30.1 in ENE 0.9 mph 3 mph 77% 0 in 504 W/m2
09:28 63.9 °F 56.5 °F 30.1 in ENE 0.9 mph 5 mph 77% 0 in 561 W/m2
09:33 64.2 °F 56.5 °F 30.1 in Calm   3 mph 76% 0 in 315 W/m2
09:38 64.4 °F 57 °F 30.1 in ESE 2 mph 5 mph 77% 0 in 508 W/m2
09:43 64.8 °F 56.7 °F 30.1 in SE 0.9 mph 2 mph 75% 0 in 295 W/m2
09:48 64.9 °F 56.8 °F 30.1 in East 0.9 mph 3 mph 75% 0 in 408 W/m2
09:53 65.1 °F 57 °F 30.1 in East 2.9 mph 4 mph 75% 0 in 304 W/m2
09:58 65.5 °F 57 °F 30.1 in Calm     74% 0 in 295 W/m2
10:03 65.7 °F 57.2 °F 30.1 in East 0.9 mph 4 mph 74% 0 in 327 W/m2
10:08 65.7 °F 56.8 °F 30.1 in Calm   1 mph 73% 0 in 462 W/m2
10:13 66 °F 57.2 °F 30.1 in ENE 0.9 mph 3 mph 73% 0 in 234 W/m2
10:18 66.4 °F 57.4 °F 30.1 in East 0.9 mph 1 mph 73% 0 in 339 W/m2
10:23 66.7 °F 57.4 °F 30.1 in ENE 4 mph 4 mph 72% 0 in 668 W/m2
10:28 67.3 °F 57.6 °F 30.1 in East 2.9 mph 3 mph 71% 0 in 679 W/m2
10:33 67.6 °F 57.9 °F 30.1 in NE 2.9 mph 5 mph 71% 0 in 700 W/m2
10:38 68.2 °F 58.1 °F 30.1 in ENE 0.9 mph 6 mph 70% 0 in 642 W/m2
10:43 68.7 °F 59 °F 30.1 in ENE 0.9 mph 4 mph 71% 0 in 541 W/m2
10:48 69.3 °F 59 °F 30.1 in ENE 4 mph 6 mph 70% 0 in 701 W/m2
10:53 70 °F 59 °F 30.1 in East 2.9 mph 3 mph 68% 0 in 712 W/m2
10:58 70.3 °F 58.5 °F 30.1 in ESE 5 mph 5 mph 66% 0 in 722 W/m2
11:03 70.3 °F 58.5 °F 30.1 in NE 0.9 mph 4 mph 66% 0 in 733 W/m2
11:08 70.9 °F 58.1 °F 30.1 in ESE 0.9 mph 4 mph 64% 0 in 745 W/m2
11:13 71.1 °F 58.6 °F 30 in ENE 2 mph 3 mph 65% 0 in 740 W/m2
11:18 71.4 °F 58.1 °F 30 in ESE 2 mph 6 mph 63% 0 in 772 W/m2
11:23 71.8 °F 57.2 °F 30 in NNE 2 mph 8 mph 60% 0 in 793 W/m2
11:28 71.8 °F 57.6 °F 30 in East 0.9 mph 2 mph 61% 0 in 802 W/m2
11:33 72.1 °F 57.6 °F 30 in WSW 0.9 mph 8 mph 60% 0 in 831 W/m2
11:38 72.3 °F 57.7 °F 30 in ENE 2 mph 3 mph 60% 0 in 872 W/m2
11:43 72.7 °F 56.5 °F 30 in NNE 2 mph 2 mph 57% 0 in 773 W/m2
11:48 73.2 °F 56.7 °F 30 in East 2 mph 4 mph 56% 0 in 439 W/m2
11:53 73.9 °F 55.8 °F 30 in ESE 0.9 mph 6 mph 53% 0 in 696 W/m2
11:58 73.8 °F 55 °F 30 in ENE 2 mph 3 mph 52% 0 in 411 W/m2
12:03 73 °F 56.5 °F 30 in West 2 mph 2 mph 56% 0 in 722 W/m2
12:08 73.4 °F 55.8 °F 30 in NE 2 mph 3 mph 54% 0 in 969 W/m2
12:13 73.9 °F 55.2 °F 30 in SE 2.9 mph 7 mph 52% 0 in 914 W/m2
12:18 74.1 °F 55.4 °F 30 in NE 2 mph 4 mph 52% 0 in 628 W/m2
12:23 74.3 °F 55.6 °F 30 in ENE 2 mph 3 mph 52% 0 in 605 W/m2
12:28 74.1 °F 55.4 °F 30 in NE 0.9 mph 3 mph 52% 0 in 204 W/m2
12:33 74.1 °F 56.8 °F 30 in East 2 mph 4 mph 55% 0 in 664 W/m2
12:38 74.1 °F 57.4 °F 30 in ENE 4 mph 4 mph 56% 0 in 947 W/m2
12:43 74.1 °F 55.9 °F 30 in North 0.9 mph 4 mph 53% 0 in 216 W/m2
12:48 73.8 °F 56.7 °F 30 in NNW 0.9 mph 2 mph 55% 0 in 1004 W/m2
12:53 73.6 °F 56.8 °F 30 in East 4 mph 6 mph 56% 0 in 1032 W/m2
12:58 73.9 °F 55.8 °F 30 in East 2.9 mph 7 mph 53% 0 in 965 W/m2
13:03 73.9 °F 55.2 °F 30 in East 2 mph 4 mph 52% 0 in 251 W/m2
13:09 73.8 °F 54.5 °F 30 in East 0.9 mph 4 mph 51% 0 in 461 W/m2
13:14 73.8 °F 54 °F 30 in NW 2 mph 4 mph 50% 0 in 455 W/m2
13:19 73.9 °F 56.3 °F 30 in ESE 2.9 mph 3 mph 54% 0 in 538 W/m2
13:24 74.3 °F 56.1 °F 30 in East 0.9 mph 3 mph 53% 0 in 376 W/m2
13:29 74.7 °F 56.5 °F 30 in Calm   6 mph 53% 0 in 1060 W/m2
13:34 74.8 °F 55.6 °F 30 in ENE 2.9 mph 6 mph 51% 0 in 1055 W/m2
13:39 75 °F 57.2 °F 30 in SE 4 mph 4 mph 54% 0 in 1088 W/m2
13:44 75.6 °F 57.2 °F 30 in Calm   1 mph 53% 0 in 1107 W/m2
Juneau County Weather
Compliments of Weather Underground - 4 mb